Time;durP1;ratioP1;P1;durP2;ratioP2;P2;SDS_P1;SDS_P2;PMS_P1;PMS_P2;Temp;Humidity;BMP_temperature;BMP_pressure;BME280_temperature;BME280_humidity;BME280_pressure;Samples;Min_cycle;Max_cycle;Signal;HPM_P1;HPM_P2
2023/03/01 00:01:19;;;;;;;16.98;7.90;;;-0.10;99.90;;;;;;5056792;28;20040;-78
2023/03/01 00:03:46;;;;;;;15.15;7.75;;;-0.70;99.90;;;;;;5089672;28;20048;-79
2023/03/01 00:06:14;;;;;;;15.68;8.18;;;-0.70;99.90;;;;;;5089842;28;20489;-78
2023/03/01 00:08:41;;;;;;;18.85;7.95;;;-0.40;99.90;;;;;;5076073;28;20063;-78
2023/03/01 00:11:24;;;;;;;17.85;8.25;;;-0.80;99.90;;;;;;5076408;28;20525;-79
2023/03/01 00:13:53;;;;;;;18.38;8.80;;;-0.80;99.90;;;;;;5092791;28;20044;-79
2023/03/01 00:16:25;;;;;;;19.23;8.70;;;-0.80;99.90;;;;;;5094212;28;20040;-78
2023/03/01 00:18:51;;;;;;;19.33;9.32;;;-0.80;99.90;;;;;;5072375;28;20174;-78
2023/03/01 00:21:20;;;;;;;15.73;7.95;;;-0.80;99.90;;;;;;5073070;28;20135;-78
2023/03/01 00:23:51;;;;;;;19.55;9.00;;;-0.80;99.90;;;;;;5109166;28;20067;-78
2023/03/01 00:26:19;;;;;;;15.30;8.68;;;-0.60;99.90;;;;;;5105742;28;20120;-78
2023/03/01 00:28:47;;;;;;;15.18;7.93;;;-0.90;99.90;;;;;;5072576;28;20036;-78
2023/03/01 00:31:16;;;;;;;24.90;8.88;;;-0.90;99.90;;;;;;5089386;28;20051;-78
2023/03/01 00:33:44;;;;;;;16.98;8.13;;;-0.90;99.90;;;;;;5072765;28;20093;-78
2023/03/01 00:36:13;;;;;;;27.10;8.55;;;-0.90;99.90;;;;;;5089495;28;20087;-78
2023/03/01 00:38:45;;;;;;;15.73;8.23;;;-0.90;99.90;;;;;;5094313;28;20162;-78
2023/03/01 00:41:15;;;;;;;17.88;8.18;;;-0.90;99.90;;;;;;5076025;28;20040;-78
2023/03/01 00:43:42;;;;;;;16.23;8.25;;;-0.90;99.90;;;;;;5109258;28;20044;-78
2023/03/01 00:46:13;;;;;;;17.90;8.85;;;-1.00;99.90;;;;;;5092978;28;20077;-78
2023/03/01 00:48:40;;;;;;;18.63;9.23;;;-1.00;99.90;;;;;;5090565;28;20063;-78
2023/03/01 00:51:11;;;;;;;19.80;8.98;;;-1.00;99.90;;;;;;5076037;28;20059;-78
2023/03/01 00:53:39;;;;;;;18.10;9.13;;;-1.00;99.90;;;;;;5092285;28;20079;-79
2023/03/01 00:56:07;;;;;;;15.80;8.68;;;-0.60;99.90;;;;;;5092950;28;20036;-78
2023/03/01 00:58:34;;;;;;;17.42;8.27;;;-1.00;99.90;;;;;;5072395;28;20502;-78
2023/03/01 01:01:16;;;;;;;19.05;8.13;;;-1.00;99.90;;;;;;5054360;28;20492;-78
2023/03/01 01:03:48;;;;;;;22.52;8.45;;;-1.10;99.90;;;;;;5072451;28;20036;-78
2023/03/01 01:06:21;;;;;;;17.80;8.90;;;-1.10;99.90;;;;;;5056474;28;20519;-78
2023/03/01 01:08:49;;;;;;;16.23;7.80;;;-1.10;99.90;;;;;;5080795;28;20508;-78
2023/03/01 01:11:16;;;;;;;20.92;9.27;;;-1.10;99.90;;;;;;5089196;28;20044;-78
2023/03/01 01:13:46;;;;;;;18.75;8.65;;;-0.30;99.90;;;;;;5072118;28;20520;-78
2023/03/01 01:16:17;;;;;;;16.98;8.10;;;-1.10;99.90;;;;;;5089120;28;20056;-78
2023/03/01 01:18:44;;;;;;;18.23;9.05;;;-0.70;99.90;;;;;;5083747;28;20032;-78
2023/03/01 01:21:14;;;;;;;19.20;9.10;;;-0.40;99.90;;;;;;5056070;28;20041;-78
2023/03/01 01:23:43;;;;;;;17.88;8.32;;;-1.20;99.90;;;;;;5072045;28;20072;-78
2023/03/01 01:26:20;;;;;;;16.25;8.57;;;-0.90;99.90;;;;;;5088513;28;20109;-78
2023/03/01 01:28:47;;;;;;;19.83;8.77;;;-1.20;99.90;;;;;;5071320;28;20071;-78
2023/03/01 01:31:14;;;;;;;17.98;8.63;;;-1.20;99.90;;;;;;5071532;28;20153;-78
2023/03/01 01:33:41;;;;;;;18.00;8.43;;;-1.20;99.90;;;;;;5088400;28;20044;-78
2023/03/01 01:36:08;;;;;;;15.52;8.20;;;-1.20;99.90;;;;;;5056176;28;20578;-78
2023/03/01 01:38:37;;;;;;;18.80;9.38;;;-1.30;99.90;;;;;;5090462;28;20048;-78
2023/03/01 01:41:05;;;;;;;21.27;9.30;;;-1.30;99.90;;;;;;5091585;28;20089;-78
2023/03/01 01:43:36;;;;;;;14.98;7.78;;;-1.30;99.90;;;;;;5092005;28;20491;-78
2023/03/01 01:46:32;;;;;;;16.13;8.32;;;-1.30;99.90;;;;;;5091134;28;20091;-78
2023/03/01 01:49:31;;;;;;;17.47;8.10;;;-1.30;99.90;;;;;;5106834;28;20040;-78
2023/03/01 01:52:31;;;;;;;18.25;8.40;;;-1.40;99.90;;;;;;5087693;28;20286;-78
2023/03/01 01:55:12;;;;;;;16.05;7.70;;;-1.40;99.90;;;;;;5070566;28;20052;-78
2023/03/01 01:57:48;;;;;;;17.80;9.07;;;-1.40;99.90;;;;;;5071019;28;20052;-78
2023/03/01 02:00:21;;;;;;;25.17;9.55;;;-1.40;99.90;;;;;;5070879;28;20040;-78
2023/03/01 02:02:54;;;;;;;16.05;8.38;;;-1.40;99.90;;;;;;5070871;28;20051;-78
2023/03/01 02:05:58;;;;;;;19.98;8.68;;;-1.40;99.90;;;;;;5087738;28;20036;-78
2023/03/01 02:08:30;;;;;;;17.38;8.85;;;-1.40;99.90;;;;;;5074341;28;20576;-78
2023/03/01 02:10:59;;;;;;;20.73;9.27;;;-1.40;99.90;;;;;;5087817;28;20036;-78
2023/03/01 02:13:27;;;;;;;22.90;9.45;;;-1.40;99.90;;;;;;5083053;28;20040;-78
2023/03/01 02:15:54;;;;;;;16.15;8.43;;;-1.50;99.90;;;;;;5086999;28;20045;-78
2023/03/01 02:18:23;;;;;;;17.48;8.50;;;-1.40;99.90;;;;;;5054416;28;20049;-78
2023/03/01 02:20:59;;;;;;;18.42;7.43;;;-0.70;99.90;;;;;;5086687;28;20052;-78
2023/03/01 02:23:27;;;;;;;15.55;6.95;;;-1.60;99.90;;;;;;5070831;28;20094;-78
2023/03/01 02:26:08;;;;;;;18.08;7.07;;;-1.30;99.90;;;;;;5054197;28;20066;-78
2023/03/01 02:28:37;;;;;;;16.88;7.00;;;-0.90;99.90;;;;;;5070579;28;20052;-78
2023/03/01 02:33:56;;;;;;;19.58;7.80;;;-0.90;99.90;;;;;;5086709;28;20139;-78
2023/03/01 02:36:26;;;;;;;16.88;7.75;;;-1.60;99.90;;;;;;5070639;28;20120;-78
2023/03/01 02:38:57;;;;;;;16.33;7.55;;;-1.60;99.90;;;;;;5070181;28;20044;-78
2023/03/01 02:41:28;;;;;;;18.40;8.23;;;-1.60;99.90;;;;;;5092466;28;20096;-78
2023/03/01 02:43:55;;;;;;;15.60;7.73;;;-1.70;99.90;;;;;;5053597;28;1134097;-78
2023/03/01 02:46:25;;;;;;;15.98;7.78;;;-1.70;99.90;;;;;;5078949;28;20040;-78
2023/03/01 02:48:57;;;;;;;21.63;8.07;;;-1.70;99.90;;;;;;5078510;28;20054;-78
2023/03/01 02:51:38;;;;;;;15.93;7.68;;;-1.70;99.90;;;;;;5094412;28;20127;-78
2023/03/01 02:54:21;;;;;;;17.95;7.13;;;-1.70;99.90;;;;;;5080146;28;20401;-78
2023/03/01 02:56:49;;;;;;;17.63;7.80;;;-1.70;99.90;;;;;;5111735;28;20093;-78
2023/03/01 02:59:20;;;;;;;15.55;7.55;;;-1.70;99.90;;;;;;5111266;28;20040;-78
2023/03/01 03:01:47;;;;;;;18.52;7.85;;;-1.00;99.90;;;;;;5111758;28;20052;-78
2023/03/01 03:04:17;;;;;;;15.95;7.97;;;-1.50;99.90;;;;;;5077864;28;20167;-78
2023/03/01 03:06:49;;;;;;;17.73;8.10;;;-1.70;99.90;;;;;;5111339;28;20059;-78
2023/03/01 03:09:17;;;;;;;21.40;8.15;;;-1.70;99.90;;;;;;5110959;28;20430;-78
2023/03/01 03:11:43;;;;;;;18.00;8.73;;;-1.20;99.90;;;;;;5111598;28;20411;-78
2023/03/01 03:14:12;;;;;;;22.10;8.32;;;-1.80;99.90;;;;;;5074132;28;20124;-78
2023/03/01 03:16:44;;;;;;;20.30;8.57;;;-1.80;99.90;;;;;;5091492;28;20500;-78
2023/03/01 03:19:11;;;;;;;20.95;9.05;;;-1.20;99.90;;;;;;5091476;28;20037;-78
2023/03/01 03:21:39;;;;;;;23.17;8.57;;;-1.80;99.90;;;;;;5074289;28;20075;-78
2023/03/01 03:24:05;;;;;;;20.25;8.13;;;-1.80;99.90;;;;;;5091938;28;20032;-78
2023/03/01 03:26:32;;;;;;;16.40;8.18;;;-1.80;99.90;;;;;;5058123;28;20066;-78
2023/03/01 03:28:59;;;;;;;19.80;9.10;;;-1.80;99.90;;;;;;5057564;28;20036;-79
2023/03/01 03:31:27;;;;;;;20.27;8.57;;;-1.90;99.90;;;;;;5090813;28;20076;-78
2023/03/01 03:33:54;;;;;;;21.48;9.05;;;-1.80;99.90;;;;;;5074465;28;20052;-78
2023/03/01 03:36:24;;;;;;;17.63;7.93;;;-1.60;99.90;;;;;;5074070;28;20043;-78
2023/03/01 03:38:51;;;;;;;21.95;8.60;;;-1.80;99.90;;;;;;5090616;28;20094;-78
2023/03/01 03:41:18;;;;;;;22.75;9.63;;;-1.90;99.90;;;;;;5057282;28;20048;-78
2023/03/01 03:43:48;;;;;;;17.70;8.55;;;-1.90;99.90;;;;;;5074122;28;20044;-78
2023/03/01 03:46:16;;;;;;;19.88;8.43;;;-1.90;99.90;;;;;;5093703;28;20059;-78
2023/03/01 03:48:45;;;;;;;15.32;7.88;;;-1.90;99.90;;;;;;5094148;28;20460;-78
2023/03/01 03:51:16;;;;;;;21.40;8.50;;;-2.00;99.90;;;;;;5110248;28;20069;-78
2023/03/01 03:53:44;;;;;;;23.38;9.23;;;-2.00;99.90;;;;;;5093129;28;20040;-78
2023/03/01 03:56:11;;;;;;;24.20;9.95;;;-2.00;99.90;;;;;;5075074;28;20377;-78
2023/03/01 03:58:38;;;;;;;21.75;8.77;;;-2.00;99.90;;;;;;5057045;28;20048;-78
2023/03/01 04:01:06;;;;;;;17.70;8.88;;;-2.00;99.90;;;;;;5056726;28;20048;-79
2023/03/01 04:03:34;;;;;;;18.98;9.40;;;-1.60;99.90;;;;;;5073950;28;20036;-78
2023/03/01 04:06:02;;;;;;;22.15;9.30;;;-2.10;99.90;;;;;;5057429;28;20032;-79
2023/03/01 04:08:29;;;;;;;21.13;9.98;;;-2.00;99.90;;;;;;5073774;28;20127;-78
2023/03/01 04:11:25;;;;;;;22.33;9.65;;;-2.00;99.90;;;;;;5073393;28;20190;-78
2023/03/01 04:13:52;;;;;;;19.27;9.23;;;-2.10;99.90;;;;;;5089936;28;20044;-78
2023/03/01 04:16:19;;;;;;;18.55;9.60;;;-2.00;99.90;;;;;;5085718;28;20040;-78
2023/03/01 04:18:47;;;;;;;19.08;9.82;;;-1.90;99.90;;;;;;5076591;28;20035;-78
2023/03/01 04:21:14;;;;;;;20.88;9.57;;;-1.70;99.90;;;;;;5076535;28;20331;-78
2023/03/01 04:23:41;;;;;;;20.00;9.55;;;-2.10;99.90;;;;;;5093607;28;20488;-78
2023/03/01 04:26:08;;;;;;;18.63;8.98;;;-2.10;99.90;;;;;;5085065;28;20048;-78
2023/03/01 04:28:45;;;;;;;15.38;8.13;;;-2.10;99.90;;;;;;5073010;28;20400;-78
2023/03/01 04:31:17;;;;;;;21.33;9.55;;;-2.20;99.90;;;;;;5056623;28;20444;-78
2023/03/01 04:33:55;;;;;;;19.58;8.48;;;-2.10;99.90;;;;;;5073530;28;20040;-79
2023/03/01 04:36:24;;;;;;;22.88;9.63;;;-2.00;99.90;;;;;;5072798;28;20040;-78
2023/03/01 04:38:51;;;;;;;20.42;8.93;;;-2.20;99.90;;;;;;5072881;28;20526;-78
2023/03/01 04:41:21;;;;;;;20.15;9.30;;;-2.20;99.90;;;;;;5072632;28;20083;-78
2023/03/01 04:43:48;;;;;;;18.30;8.88;;;-2.20;99.90;;;;;;5073070;28;20101;-78
2023/03/01 04:46:18;;;;;;;22.00;9.38;;;-2.20;99.90;;;;;;5073599;28;20059;-78
2023/03/01 04:48:47;;;;;;;20.42;8.88;;;-2.20;99.90;;;;;;5072931;28;20063;-78
2023/03/01 04:51:14;;;;;;;19.85;9.43;;;-2.30;99.90;;;;;;5073135;28;20088;-78
2023/03/01 04:53:41;;;;;;;21.88;9.23;;;-2.30;99.90;;;;;;5073045;28;20044;-78
2023/03/01 04:56:08;;;;;;;22.40;9.65;;;-2.30;99.90;;;;;;5056431;28;20079;-79
2023/03/01 04:58:35;;;;;;;17.90;8.77;;;-2.30;99.90;;;;;;5074710;28;20119;-78
2023/03/01 05:01:14;;;;;;;21.52;9.45;;;-2.30;99.90;;;;;;5076158;28;20403;-78
2023/03/01 05:03:49;;;;;;;23.60;9.05;;;-1.50;99.90;;;;;;5092463;28;20039;-78
2023/03/01 05:06:17;;;;;;;20.02;9.07;;;-2.30;99.90;;;;;;5093135;28;20545;-78
2023/03/01 05:08:44;;;;;;;20.92;8.93;;;-2.10;99.90;;;;;;5075130;28;20029;-78
2023/03/01 05:11:11;;;;;;;21.02;9.40;;;-2.30;99.90;;;;;;5055587;28;20477;-79
2023/03/01 05:13:39;;;;;;;21.00;9.50;;;-2.20;99.90;;;;;;5072543;28;20036;-78
2023/03/01 05:16:10;;;;;;;22.08;10.15;;;-2.40;99.90;;;;;;5055837;28;20105;-78
2023/03/01 05:18:38;;;;;;;19.13;9.27;;;-1.80;99.90;;;;;;5056693;28;20423;-78
2023/03/01 05:21:08;;;;;;;23.08;10.00;;;-2.40;99.90;;;;;;5088636;28;20032;-78
2023/03/01 05:23:35;;;;;;;23.27;9.90;;;-2.40;99.90;;;;;;5071942;28;20040;-78
2023/03/01 05:26:04;;;;;;;21.48;9.23;;;-2.40;99.90;;;;;;5055970;28;20097;-78
2023/03/01 05:28:31;;;;;;;21.92;9.25;;;-2.40;99.90;;;;;;5079981;28;20040;-78
2023/03/01 05:30:58;;;;;;;21.02;9.30;;;-2.40;99.90;;;;;;5092205;28;20044;-78
2023/03/01 05:33:26;;;;;;;18.42;9.90;;;-2.40;99.90;;;;;;5075708;28;20047;-78
2023/03/01 05:35:53;;;;;;;20.10;10.07;;;-2.40;99.90;;;;;;5091943;28;20742;-78
2023/03/01 05:38:22;;;;;;;32.50;10.38;;;-2.30;99.90;;;;;;5072141;28;20040;-78
2023/03/01 05:40:49;;;;;;;21.88;10.10;;;-2.50;99.90;;;;;;5055898;28;20051;-78
2023/03/01 05:43:17;;;;;;;19.23;9.88;;;-2.30;99.90;;;;;;5055426;28;20036;-78
2023/03/01 05:45:45;;;;;;;25.90;10.48;;;-1.80;99.90;;;;;;5055724;28;20497;-78
2023/03/01 05:48:12;;;;;;;26.02;10.93;;;-2.50;99.90;;;;;;5055572;28;20044;-78
2023/03/01 05:50:42;;;;;;;26.33;10.75;;;-1.50;99.90;;;;;;5088403;28;20044;-78
2023/03/01 05:53:20;;;;;;;29.45;11.35;;;-2.50;99.90;;;;;;5071881;28;20048;-78
2023/03/01 05:55:49;;;;;;;24.95;11.30;;;-2.50;99.90;;;;;;5072028;28;20097;-78
2023/03/01 05:58:19;;;;;;;26.17;11.10;;;-2.40;99.90;;;;;;5055738;28;20041;-79
2023/03/01 06:00:47;;;;;;;24.83;11.18;;;-2.60;99.90;;;;;;5088450;28;20477;-78
2023/03/01 06:03:15;;;;;;;25.10;11.55;;;-2.40;99.90;;;;;;5088516;28;20471;-78
2023/03/01 06:05:43;;;;;;;25.67;11.80;;;-2.60;99.90;;;;;;5071916;28;20029;-78
2023/03/01 06:08:11;;;;;;;26.40;11.73;;;-2.60;99.90;;;;;;5088320;28;20067;-78
2023/03/01 06:10:37;;;;;;;26.60;11.68;;;-2.60;99.90;;;;;;5055107;28;20044;-78
2023/03/01 06:13:04;;;;;;;28.15;12.63;;;-2.60;99.90;;;;;;5071343;28;20062;-77
2023/03/01 06:15:31;;;;;;;25.15;11.15;;;-2.30;99.90;;;;;;5055425;28;20037;-78
2023/03/01 06:17:58;;;;;;;22.17;11.48;;;-2.60;99.90;;;;;;5075627;28;20048;-78
2023/03/01 06:20:26;;;;;;;21.17;10.65;;;-1.60;99.90;;;;;;5075146;28;20521;-78
2023/03/01 06:22:53;;;;;;;25.45;11.75;;;-2.60;99.90;;;;;;5075222;28;20032;-78
2023/03/01 06:25:23;;;;;;;27.90;11.20;;;-1.90;99.90;;;;;;5075339;28;20062;-78
2023/03/01 06:27:51;;;;;;;28.40;11.95;;;-2.60;99.90;;;;;;5075383;28;20127;-78
2023/03/01 06:30:20;;;;;;;24.92;12.30;;;-2.00;99.90;;;;;;5079857;28;20043;-78
2023/03/01 06:32:47;;;;;;;26.42;11.60;;;-2.60;99.90;;;;;;5095400;28;20040;-78
2023/03/01 06:35:17;;;;;;;25.48;11.77;;;-2.60;99.90;;;;;;5095572;28;20052;-78
2023/03/01 06:37:45;;;;;;;25.98;10.68;;;-2.60;99.90;;;;;;5078787;28;20083;-78
2023/03/01 06:40:13;;;;;;;23.73;11.50;;;-2.60;99.90;;;;;;5094262;28;20105;-78
2023/03/01 06:42:42;;;;;;;25.17;10.43;;;-2.60;99.90;;;;;;5066423;28;20483;-78
2023/03/01 06:45:10;;;;;;;24.60;11.00;;;-2.50;99.90;;;;;;5099416;28;20070;-78
2023/03/01 06:47:37;;;;;;;21.42;9.90;;;-2.50;99.90;;;;;;5076186;28;20169;-78
2023/03/01 06:50:04;;;;;;;22.05;10.55;;;-2.30;99.90;;;;;;5074958;28;20127;-78
2023/03/01 06:52:31;;;;;;;20.73;9.85;;;-2.50;99.90;;;;;;5074420;28;20661;-78
2023/03/01 06:55:01;;;;;;;21.38;9.32;;;-2.50;99.90;;;;;;5058534;28;20037;-78
2023/03/01 06:57:28;;;;;;;21.20;11.25;;;-2.20;99.90;;;;;;5058190;28;20048;-78
2023/03/01 06:59:55;;;;;;;22.42;10.27;;;-2.40;99.90;;;;;;5076535;28;20106;-78
2023/03/01 07:02:21;;;;;;;20.75;9.02;;;-2.30;99.90;;;;;;5083832;28;20473;-78
2023/03/01 07:04:52;;;;;;;22.05;10.00;;;-2.30;99.90;;;;;;5081416;28;20040;-78
2023/03/01 07:07:18;;;;;;;23.80;10.55;;;-2.30;99.90;;;;;;5083642;28;20123;-78
2023/03/01 07:09:46;;;;;;;28.77;9.90;;;-2.20;99.90;;;;;;5104714;28;20556;-78
2023/03/01 07:12:13;;;;;;;28.00;10.35;;;-2.20;99.90;;;;;;5068063;28;20037;-78
2023/03/01 07:14:43;;;;;;;24.45;10.70;;;-1.40;99.90;;;;;;5094478;28;20382;-78
2023/03/01 07:17:10;;;;;;;25.40;10.35;;;-2.00;99.90;;;;;;5101857;28;20036;-78
2023/03/01 07:19:37;;;;;;;24.40;11.25;;;-1.90;99.90;;;;;;5081800;28;20093;-78
2023/03/01 07:22:04;;;;;;;21.20;10.85;;;-1.90;99.90;;;;;;5102183;28;20068;-78
2023/03/01 07:24:30;;;;;;;23.42;10.00;;;-1.20;99.90;;;;;;5091450;28;20047;-78
2023/03/01 07:26:57;;;;;;;28.45;10.45;;;-1.80;99.90;;;;;;5062964;28;20480;-78
2023/03/01 07:29:24;;;;;;;36.78;11.10;;;-0.70;99.90;;;;;;5057617;28;20128;-78
2023/03/01 07:31:50;;;;;;;30.65;10.52;;;-1.60;99.90;;;;;;5086341;28;20085;-78
2023/03/01 07:34:17;;;;;;;25.08;10.90;;;-1.50;99.90;;;;;;5071609;28;20127;-78
2023/03/01 07:36:45;;;;;;;83.80;10.60;;;-1.40;99.90;;;;;;5076939;28;20132;-79
2023/03/01 07:39:12;;;;;;;71.43;10.32;;;-1.40;99.90;;;;;;5094778;28;20105;-79
2023/03/01 07:41:39;;;;;;;48.17;9.70;;;-0.60;99.90;;;;;;5090579;28;20044;-79
2023/03/01 07:44:06;;;;;;;30.50;10.60;;;-0.90;99.90;;;;;;5063376;28;20047;-79
2023/03/01 07:46:32;;;;;;;48.75;12.23;;;-1.20;99.90;;;;;;5077249;28;20036;-79
2023/03/01 07:48:59;;;;;;;60.75;12.20;;;-0.50;99.90;;;;;;5074471;28;20575;-79
2023/03/01 07:51:26;;;;;;;60.97;11.20;;;-0.40;99.90;;;;;;5101305;28;20044;-79
2023/03/01 07:53:53;;;;;;;42.08;11.57;;;-1.10;99.90;;;;;;5068117;28;20036;-79
2023/03/01 07:56:21;;;;;;;33.60;10.68;;;-1.00;99.90;;;;;;5084897;28;20477;-79
2023/03/01 07:58:48;;;;;;;42.85;11.27;;;-0.70;99.90;;;;;;5098014;28;20048;-80
2023/03/01 08:01:17;;;;;;;68.10;11.40;;;-1.00;99.90;;;;;;5100151;28;20411;-80
2023/03/01 08:03:44;;;;;;;44.92;11.10;;;-1.00;99.90;;;;;;5079048;28;20040;-80
2023/03/01 08:06:13;;;;;;;49.40;11.65;;;-0.90;99.90;;;;;;5065965;28;20493;-79
2023/03/01 08:08:40;;;;;;;59.13;11.15;;;-0.90;99.90;;;;;;5077489;28;20044;-79
2023/03/01 08:11:09;;;;;;;43.17;11.85;;;-0.70;99.90;;;;;;5057966;28;20493;-79
2023/03/01 08:13:36;;;;;;;44.42;10.48;;;-0.60;99.90;;;;;;5074921;28;20058;-79
2023/03/01 08:16:11;;;;;;;33.40;9.82;;;-0.70;99.90;;;;;;5087482;28;20119;-79
2023/03/01 08:18:38;;;;;;;37.88;8.10;;;-0.70;99.90;;;;;;5087996;28;20130;-79
2023/03/01 08:21:16;;;;;;;23.60;9.75;;;-0.70;99.90;;;;;;5086554;28;20116;-79
2023/03/01 08:23:43;;;;;;;35.00;9.52;;;-0.70;99.90;;;;;;5103283;28;20048;-80
2023/03/01 08:26:16;;;;;;;53.20;10.30;;;-0.60;99.90;;;;;;5095410;28;20110;-81
2023/03/01 08:28:43;;;;;;;38.38;9.40;;;-0.50;99.90;;;;;;5073431;28;20174;-78
2023/03/01 08:31:30;;;;;;;21.05;6.72;;;-0.20;99.90;;;;;;5073192;28;20139;-77
2023/03/01 08:33:59;;;;;;;15.18;6.55;;;-0.40;99.90;;;;;;5089412;28;20127;-76
2023/03/01 08:36:29;;;;;;;22.70;7.03;;;-0.30;99.90;;;;;;5078113;28;20243;-76
2023/03/01 08:38:55;;;;;;;20.45;8.02;;;-0.30;99.90;;;;;;5090932;28;20051;-76
2023/03/01 08:41:23;;;;;;;19.55;7.32;;;-0.30;99.90;;;;;;5065624;28;20037;-76
2023/03/01 08:43:50;;;;;;;20.08;7.07;;;-0.20;99.90;;;;;;5055864;28;20037;-77
2023/03/01 08:46:17;;;;;;;18.75;7.95;;;-0.10;99.90;;;;;;5072455;28;20523;-76
2023/03/01 08:48:43;;;;;;;17.67;7.80;;;-0.10;99.90;;;;;;5072534;28;20037;-77
2023/03/01 08:51:16;;;;;;;19.13;7.13;;;-0.10;99.90;;;;;;5089337;28;20043;-76
2023/03/01 08:53:44;;;;;;;22.80;8.50;;;0.90;99.90;;;;;;5072174;28;20048;-77
2023/03/01 08:56:11;;;;;;;17.27;7.38;;;0.10;99.90;;;;;;5098922;28;20063;-77
2023/03/01 08:58:39;;;;;;;20.77;8.38;;;0.50;99.90;;;;;;5093057;28;20534;-77
2023/03/01 09:01:10;;;;;;;22.00;8.93;;;0.50;99.90;;;;;;5092490;28;20078;-77
2023/03/01 09:03:37;;;;;;;21.83;8.20;;;0.20;99.90;;;;;;5092330;28;20442;-77
2023/03/01 09:06:08;;;;;;;20.10;8.27;;;0.30;99.90;;;;;;5108601;28;20078;-77
2023/03/01 09:08:40;;;;;;;20.45;8.85;;;0.30;99.90;;;;;;5092063;28;20040;-76
2023/03/01 09:11:09;;;;;;;28.50;9.82;;;0.40;99.90;;;;;;5092114;28;20082;-77
2023/03/01 09:13:36;;;;;;;17.95;8.32;;;0.50;99.90;;;;;;5092482;28;20126;-77
2023/03/01 09:16:05;;;;;;;17.63;8.13;;;1.20;99.90;;;;;;5089019;28;20120;-77
2023/03/01 09:18:33;;;;;;;19.75;8.18;;;0.70;99.90;;;;;;5079169;28;20074;-77
2023/03/01 09:21:08;;;;;;;23.40;8.55;;;0.80;99.90;;;;;;5091638;28;20113;-76
2023/03/01 09:23:38;;;;;;;16.40;7.35;;;0.80;99.90;;;;;;5092538;28;20126;-76
2023/03/01 09:26:16;;;;;;;18.55;7.80;;;0.90;99.90;;;;;;5075227;28;20044;-77
2023/03/01 09:28:44;;;;;;;17.70;7.93;;;1.00;99.90;;;;;;5072710;28;20041;-77
2023/03/01 09:31:14;;;;;;;21.90;9.25;;;1.40;99.90;;;;;;5071984;28;20056;-77
2023/03/01 09:33:45;;;;;;;17.65;7.95;;;1.10;99.90;;;;;;5072170;28;20362;-77
2023/03/01 09:36:14;;;;;;;18.05;8.52;;;1.20;99.90;;;;;;5072204;28;20051;-77
2023/03/01 09:38:42;;;;;;;21.67;9.80;;;1.30;99.90;;;;;;5089091;28;20409;-77
2023/03/01 09:41:32;;;;;;;17.00;8.27;;;2.00;99.90;;;;;;5091539;28;20079;-77
2023/03/01 09:44:21;;;;;;;20.13;9.25;;;1.50;99.90;;;;;;5108602;28;20048;-77
2023/03/01 09:46:48;;;;;;;19.38;8.77;;;1.60;99.90;;;;;;5108801;28;20075;-77
2023/03/01 09:49:24;;;;;;;19.30;8.88;;;1.70;99.90;;;;;;5055775;28;20496;-77
2023/03/01 09:52:03;;;;;;;22.67;9.27;;;2.60;99.90;;;;;;5087798;28;20397;-77
2023/03/01 09:54:30;;;;;;;22.30;9.45;;;1.90;99.90;;;;;;5092456;28;20063;-77
2023/03/01 09:57:27;;;;;;;19.17;9.45;;;2.10;99.90;;;;;;5091997;28;20086;-77
2023/03/01 10:00:15;;;;;;;19.90;9.18;;;2.20;99.90;;;;;;5086608;28;20118;-77
2023/03/01 10:02:48;;;;;;;20.35;9.63;;;2.30;99.90;;;;;;5092307;28;20485;-77
2023/03/01 10:05:43;;;;;;;20.52;9.25;;;2.50;99.90;;;;;;5091886;28;20041;-77
2023/03/01 10:08:36;;;;;;;20.58;9.85;;;2.60;99.90;;;;;;5076777;28;20450;-77
2023/03/01 10:11:06;;;;;;;22.88;10.73;;;2.70;99.90;;;;;;5092114;28;20045;-77
2023/03/01 10:13:58;;;;;;;26.98;10.98;;;2.90;99.90;;;;;;5075538;28;20481;-77
2023/03/01 10:16:50;;;;;;;26.67;10.93;;;3.00;99.90;;;;;;5075612;28;20127;-77
2023/03/01 10:19:39;;;;;;;29.13;12.02;;;3.10;99.90;;;;;;5075814;28;20109;-77
2023/03/01 10:22:22;;;;;;;28.08;12.88;;;3.30;99.90;;;;;;5075094;28;20062;-77
2023/03/01 10:24:51;;;;;;;28.40;12.18;;;3.50;99.90;;;;;;5091897;28;20572;-77
2023/03/01 10:27:52;;;;;;;32.90;13.13;;;3.70;99.90;;;;;;5058756;28;20761;-77
2023/03/01 10:30:41;;;;;;;26.55;11.75;;;3.70;99.90;;;;;;5087613;28;20050;-77
2023/03/01 10:33:20;;;;;;;31.60;12.63;;;3.90;99.90;;;;;;5094969;28;20038;-77
2023/03/01 10:35:48;;;;;;;30.65;12.10;;;4.00;99.90;;;;;;5095107;28;20104;-76
2023/03/01 10:38:16;;;;;;;30.70;12.48;;;4.10;99.90;;;;;;5078030;28;20039;-77
2023/03/01 10:41:05;;;;;;;27.63;11.68;;;4.20;99.90;;;;;;5080461;28;20040;-77
2023/03/01 10:43:49;;;;;;;24.52;11.65;;;4.30;99.90;;;;;;5091589;28;20505;-77
2023/03/01 10:46:34;;;;;;;26.08;11.88;;;4.30;99.90;;;;;;5052085;28;20053;-77
2023/03/01 10:49:18;;;;;;;21.40;10.48;;;4.50;99.90;;;;;;5067467;28;20128;-77
2023/03/01 10:51:50;;;;;;;23.30;10.07;;;4.60;99.90;;;;;;5083971;28;20075;-77
2023/03/01 10:54:27;;;;;;;21.17;9.55;;;4.70;99.90;;;;;;5050631;28;20041;-77
2023/03/01 10:56:59;;;;;;;18.45;9.35;;;4.80;99.90;;;;;;5068187;28;20048;-77
2023/03/01 10:59:27;;;;;;;22.13;10.23;;;5.00;99.90;;;;;;5051191;28;20045;-77
2023/03/01 11:02:15;;;;;;;19.90;9.20;;;5.00;99.90;;;;;;5067927;28;20045;-77
2023/03/01 11:05:00;;;;;;;21.45;9.00;;;5.10;99.90;;;;;;5084691;28;20048;-77
2023/03/01 11:07:27;;;;;;;18.30;8.45;;;5.20;99.90;;;;;;5070930;28;20363;-77
2023/03/01 11:09:54;;;;;;;15.32;7.60;;;5.30;99.90;;;;;;5071228;28;20045;-77
2023/03/01 11:12:22;;;;;;;16.55;7.75;;;5.30;99.90;;;;;;5035090;28;20382;-77
2023/03/01 11:14:52;;;;;;;16.25;8.30;;;5.40;99.90;;;;;;5035224;28;20056;-77
2023/03/01 11:17:29;;;;;;;17.92;8.13;;;5.40;99.90;;;;;;5050388;28;20042;-77
2023/03/01 11:20:14;;;;;;;21.35;9.13;;;5.40;99.90;;;;;;5051109;28;20049;-77
2023/03/01 11:22:51;;;;;;;19.15;8.63;;;5.50;99.90;;;;;;5085924;28;20045;-77
2023/03/01 11:25:23;;;;;;;19.48;9.27;;;5.60;99.90;;;;;;5070287;28;20486;-77
2023/03/01 11:27:49;;;;;;;19.10;8.98;;;5.60;99.90;;;;;;5087253;28;20490;-77
2023/03/01 11:30:38;;;;;;;21.42;9.90;;;5.70;99.90;;;;;;5086878;28;20076;-77
2023/03/01 11:33:08;;;;;;;23.13;9.82;;;5.80;99.90;;;;;;5079955;28;20037;-77
2023/03/01 11:35:38;;;;;;;19.40;9.18;;;5.80;99.90;;;;;;5050501;28;20037;-77
2023/03/01 11:38:29;;;;;;;17.67;8.77;;;5.90;99.90;;;;;;5066426;28;20049;-77
2023/03/01 11:41:30;;;;;;;16.95;8.15;;;5.90;99.90;;;;;;5050171;28;20413;-77
2023/03/01 11:44:14;;;;;;;16.73;8.43;;;5.80;99.90;;;;;;5061575;28;20043;-77
2023/03/01 11:46:58;;;;;;;20.73;9.90;;;5.80;99.90;;;;;;5093674;28;20032;-77
2023/03/01 11:49:56;;;;;;;18.77;9.07;;;5.80;99.90;;;;;;5093200;28;20086;-77
2023/03/01 11:52:41;;;;;;;18.83;8.10;;;5.90;99.90;;;;;;5093254;28;20173;-77
2023/03/01 11:55:37;;;;;;;19.20;8.65;;;5.90;99.90;;;;;;5110127;28;20055;-77
2023/03/01 11:58:09;;;;;;;16.63;7.90;;;6.00;99.90;;;;;;5110657;28;20044;-77
2023/03/01 12:00:54;;;;;;;18.00;8.43;;;6.00;99.90;;;;;;5110042;28;20048;-77
2023/03/01 12:03:52;;;;;;;20.80;8.98;;;6.00;99.90;;;;;;5081644;28;20408;-77
2023/03/01 12:06:28;;;;;;;17.27;8.23;;;6.10;99.90;;;;;;5089270;28;20052;-77
2023/03/01 12:09:33;;;;;;;16.75;8.48;;;6.00;99.90;;;;;;5089916;28;20037;-77
2023/03/01 12:12:38;;;;;;;16.60;8.38;;;6.10;99.90;;;;;;5067019;28;20052;-77
2023/03/01 12:15:39;;;;;;;16.95;8.30;;;6.10;99.90;;;;;;5067706;28;20423;-77
2023/03/01 12:18:24;;;;;;;19.50;8.85;;;6.10;99.90;;;;;;5089868;28;20041;-77
2023/03/01 12:21:02;;;;;;;17.73;7.72;;;6.20;99.90;;;;;;5082732;28;20123;-77
2023/03/01 12:23:41;;;;;;;18.35;8.77;;;6.20;99.90;;;;;;5092682;28;20400;-77
2023/03/01 12:26:25;;;;;;;14.50;7.47;;;6.30;99.90;;;;;;5101079;28;20500;-77
2023/03/01 12:29:00;;;;;;;16.98;7.13;;;6.30;99.90;;;;;;5102638;28;20035;-77
2023/03/01 12:31:45;;;;;;;18.98;8.57;;;6.30;99.90;;;;;;5091916;28;20087;-77
2023/03/01 12:35:03;;;;;;;16.63;8.07;;;6.30;99.90;;;;;;5095274;28;20401;-77
2023/03/01 12:37:34;;;;;;;16.88;8.15;;;6.30;99.90;;;;;;5055961;28;20054;-77
2023/03/01 12:40:33;;;;;;;19.20;8.25;;;6.40;99.90;;;;;;5092080;28;20043;-77
2023/03/01 12:43:06;;;;;;;19.23;8.40;;;6.50;99.90;;;;;;5092914;28;20039;-77
2023/03/01 12:46:00;;;;;;;17.00;8.57;;;6.50;99.90;;;;;;5091742;28;20048;-77
2023/03/01 12:48:51;;;;;;;24.00;9.02;;;6.60;99.90;;;;;;5102162;28;20039;-77
2023/03/01 12:51:24;;;;;;;19.10;8.32;;;6.60;99.90;;;;;;5090147;28;20558;-77
2023/03/01 12:53:54;;;;;;;19.70;8.95;;;6.60;99.90;;;;;;5092920;28;20123;-77
2023/03/01 12:56:25;;;;;;;17.30;8.50;;;6.60;99.90;;;;;;5109041;28;20036;-77
2023/03/01 12:58:59;;;;;;;17.23;9.15;;;6.60;99.90;;;;;;5092664;28;20085;-77
2023/03/01 13:01:36;;;;;;;19.40;9.48;;;6.70;99.90;;;;;;5087419;28;20044;-77
2023/03/01 13:04:23;;;;;;;21.02;8.18;;;6.70;99.90;;;;;;5072406;28;20492;-77
2023/03/01 13:06:58;;;;;;;20.13;9.15;;;6.70;99.90;;;;;;5088661;28;20040;-77
2023/03/01 13:09:37;;;;;;;15.73;8.07;;;6.70;99.90;;;;;;5088970;28;20059;-77